Time;durP1;ratioP1;P1;durP2;ratioP2;P2;SDS_P1;SDS_P2;PMS_P1;PMS_P2;Temp;Humidity;BMP_temperature;BMP_pressure;BME280_temperature;BME280_humidity;BME280_pressure;Samples;Min_cycle;Max_cycle;Signal;HPM_P1;HPM_P2
2022/10/04 00:01:43;;;;;;;2.20;1.10;;;12.60;99.90;;;;;;5030142;28;20025;-91
2022/10/04 00:04:16;;;;;;;3.33;1.15;;;12.50;99.90;;;;;;5030086;28;20029;-90
2022/10/04 00:07:10;;;;;;;2.85;1.40;;;12.50;99.90;;;;;;5029482;28;20026;-89
2022/10/04 00:09:47;;;;;;;2.20;0.85;;;12.60;99.90;;;;;;5018971;28;20626;-89
2022/10/04 00:12:25;;;;;;;2.67;1.48;;;12.60;99.90;;;;;;5028293;28;20048;-90
2022/10/04 00:14:54;;;;;;;2.47;1.20;;;12.60;99.90;;;;;;5037123;28;20386;-89
2022/10/04 00:17:26;;;;;;;3.50;1.00;;;12.60;99.90;;;;;;5028038;28;20117;-90
2022/10/04 00:19:54;;;;;;;2.47;1.30;;;12.80;99.90;;;;;;5036861;28;20033;-90
2022/10/04 00:22:24;;;;;;;3.03;1.15;;;13.00;99.90;;;;;;5029616;28;20026;-91
2022/10/04 00:25:01;;;;;;;4.88;1.30;;;12.90;99.90;;;;;;5031858;28;20037;-90
2022/10/04 00:27:27;;;;;;;2.65;1.33;;;12.60;99.90;;;;;;5029714;28;20038;-88
2022/10/04 00:30:02;;;;;;;4.25;1.30;;;12.60;99.90;;;;;;5036759;28;20663;-89
2022/10/04 00:32:29;;;;;;;2.40;1.17;;;12.60;99.90;;;;;;5040119;28;20041;-89
2022/10/04 00:34:57;;;;;;;2.50;1.05;;;12.70;99.90;;;;;;5036282;28;20042;-89
2022/10/04 00:37:24;;;;;;;3.67;1.55;;;12.60;99.90;;;;;;5046243;28;20024;-89
2022/10/04 00:39:58;;;;;;;3.13;1.30;;;12.60;99.90;;;;;;5045398;28;20108;-89
2022/10/04 00:42:40;;;;;;;2.92;1.55;;;12.50;99.90;;;;;;5047556;28;20064;-89
2022/10/04 00:45:15;;;;;;;3.50;1.25;;;12.40;99.90;;;;;;5047330;28;20124;-90
2022/10/04 00:47:47;;;;;;;3.90;1.00;;;12.30;99.90;;;;;;5036378;28;20116;-90
2022/10/04 00:50:28;;;;;;;3.60;1.60;;;12.50;99.90;;;;;;5031804;28;20025;-90
2022/10/04 00:52:58;;;;;;;4.47;1.75;;;12.60;99.90;;;;;;5027075;28;20036;-89
2022/10/04 00:55:34;;;;;;;2.83;1.40;;;12.50;99.90;;;;;;5030871;28;20223;-90
2022/10/04 00:58:03;;;;;;;2.05;1.15;;;12.70;99.90;;;;;;5027104;28;20123;-89
2022/10/04 01:00:32;;;;;;;2.20;1.20;;;12.80;99.90;;;;;;5042176;28;20083;-90
2022/10/04 01:03:00;;;;;;;3.13;1.20;;;12.60;99.90;;;;;;5036180;28;20383;-89
2022/10/04 01:05:37;;;;;;;4.07;1.55;;;12.60;99.90;;;;;;5034342;28;20033;-90
2022/10/04 01:08:23;;;;;;;5.03;1.48;;;12.40;99.90;;;;;;5026096;28;20025;-89
2022/10/04 01:11:00;;;;;;;2.63;1.30;;;12.10;99.90;;;;;;5028230;28;20029;-87
2022/10/04 01:14:10;;;;;;;2.50;1.25;;;12.20;99.90;;;;;;5037391;28;20045;-90
2022/10/04 01:16:37;;;;;;;2.42;1.00;;;12.00;99.90;;;;;;5027573;28;20071;-90
2022/10/04 01:19:20;;;;;;;2.08;1.15;;;12.10;99.90;;;;;;5029687;28;20040;-90
2022/10/04 01:21:57;;;;;;;3.33;1.43;;;12.20;99.90;;;;;;5027134;28;20095;-90
2022/10/04 01:24:23;;;;;;;5.15;1.15;;;12.20;99.90;;;;;;5025937;28;20073;-90
2022/10/04 01:26:49;;;;;;;2.60;1.25;;;12.30;99.90;;;;;;5029090;28;20060;-86
2022/10/04 01:29:17;;;;;;;4.32;1.40;;;12.40;99.90;;;;;;5031792;28;20391;-89
2022/10/04 01:31:54;;;;;;;4.82;1.10;;;12.20;99.90;;;;;;5026843;28;20037;-90
2022/10/04 01:34:22;;;;;;;2.55;1.38;;;12.10;99.90;;;;;;5027135;28;20041;-90
2022/10/04 01:36:51;;;;;;;2.83;1.20;;;12.30;99.90;;;;;;5028421;28;20025;-87
2022/10/04 01:39:19;;;;;;;6.38;1.60;;;12.50;99.90;;;;;;5032543;28;20108;-91
2022/10/04 01:41:54;;;;;;;3.30;1.38;;;12.50;99.90;;;;;;5029861;28;20036;-91
2022/10/04 01:44:36;;;;;;;2.60;1.20;;;12.40;99.90;;;;;;5030268;28;20024;-89
2022/10/04 01:47:07;;;;;;;4.50;1.83;;;12.30;99.90;;;;;;5029910;28;20033;-90
2022/10/04 01:49:37;;;;;;;2.42;1.38;;;12.20;99.90;;;;;;5032288;28;20037;-86
2022/10/04 01:52:06;;;;;;;2.50;1.27;;;12.00;99.90;;;;;;5035019;28;20026;-90
2022/10/04 01:54:57;;;;;;;3.40;1.55;;;11.90;99.90;;;;;;5029506;28;20399;-89
2022/10/04 01:57:30;;;;;;;4.13;2.15;;;12.00;99.90;;;;;;5031504;28;20044;-90
2022/10/04 02:00:01;;;;;;;5.10;1.65;;;12.00;99.90;;;;;;5029493;28;20046;-90
2022/10/04 02:02:36;;;;;;;4.25;1.58;;;11.90;99.90;;;;;;5030216;28;20124;-89
2022/10/04 02:05:05;;;;;;;6.57;1.40;;;12.00;99.90;;;;;;5030926;28;20028;-90
2022/10/04 02:07:32;;;;;;;2.08;1.10;;;11.90;99.90;;;;;;5033671;28;20040;-90
2022/10/04 02:10:03;;;;;;;2.47;1.30;;;11.90;99.90;;;;;;5033549;28;20156;-90
2022/10/04 02:12:30;;;;;;;3.10;1.48;;;11.70;99.90;;;;;;5032846;28;20091;-90
2022/10/04 02:15:00;;;;;;;2.45;1.40;;;11.50;99.90;;;;;;5029562;28;20034;-89
2022/10/04 02:17:30;;;;;;;3.50;1.45;;;11.60;99.90;;;;;;5037711;28;20094;-89
2022/10/04 02:19:58;;;;;;;3.92;1.60;;;11.60;99.90;;;;;;5037260;28;20076;-89
2022/10/04 02:22:25;;;;;;;3.70;1.30;;;11.70;99.90;;;;;;5029935;28;20397;-90
2022/10/04 02:24:53;;;;;;;3.58;1.30;;;11.50;99.90;;;;;;5029492;28;20025;-90
2022/10/04 02:27:24;;;;;;;1.42;0.95;;;11.50;99.90;;;;;;5028787;28;20128;-90
2022/10/04 02:29:50;;;;;;;2.95;1.10;;;11.70;99.90;;;;;;5030723;28;20032;-84
2022/10/04 02:35:02;;;;;;;4.03;1.60;;;11.60;99.90;;;;;;5031418;28;20083;-86
2022/10/04 02:37:29;;;;;;;2.50;1.23;;;11.30;99.90;;;;;;5034882;28;20030;-90
2022/10/04 02:40:02;;;;;;;4.45;1.85;;;11.40;99.90;;;;;;5028645;28;20030;-90
2022/10/04 02:42:43;;;;;;;4.90;1.40;;;11.20;99.90;;;;;;5036742;28;20503;-90
2022/10/04 02:45:16;;;;;;;2.92;1.33;;;11.10;99.90;;;;;;5028805;28;20571;-88
2022/10/04 02:47:53;;;;;;;2.97;1.75;;;11.30;99.90;;;;;;5031878;28;20506;-89
2022/10/04 02:50:49;;;;;;;3.47;1.30;;;11.30;99.90;;;;;;5030701;28;20033;-90
2022/10/04 02:53:25;;;;;;;2.72;1.42;;;11.10;99.90;;;;;;5030591;28;20040;-90
2022/10/04 02:55:53;;;;;;;2.85;1.42;;;11.20;99.90;;;;;;5028059;28;20051;-88
2022/10/04 02:58:22;;;;;;;3.08;1.10;;;11.40;99.90;;;;;;5028812;28;20120;-89
2022/10/04 03:00:56;;;;;;;4.10;2.00;;;11.40;99.90;;;;;;5028470;28;20108;-86
2022/10/04 03:03:36;;;;;;;6.35;1.30;;;11.40;99.90;;;;;;5033677;28;20034;-88
2022/10/04 03:06:10;;;;;;;2.05;1.20;;;11.40;99.90;;;;;;5025010;28;20038;-88
2022/10/04 03:08:54;;;;;;;2.45;1.17;;;11.30;99.90;;;;;;5025192;28;20041;-88
2022/10/04 03:11:26;;;;;;;3.85;1.45;;;11.20;99.90;;;;;;5028066;28;20068;-88
2022/10/04 03:13:56;;;;;;;3.58;1.35;;;11.00;99.90;;;;;;5026882;28;20033;-87
2022/10/04 03:16:23;;;;;;;3.10;1.23;;;10.80;99.90;;;;;;5029699;28;20064;-87
2022/10/04 03:18:50;;;;;;;2.65;1.30;;;10.70;99.90;;;;;;5029044;28;20456;-88
2022/10/04 03:21:19;;;;;;;5.90;1.60;;;10.70;99.90;;;;;;5024721;28;20032;-86
2022/10/04 03:23:47;;;;;;;2.78;1.42;;;11.00;99.90;;;;;;5027637;28;20582;-83
2022/10/04 03:26:40;;;;;;;4.40;1.60;;;11.20;99.90;;;;;;5025647;28;20049;-88
2022/10/04 03:29:09;;;;;;;2.78;1.10;;;11.30;99.90;;;;;;5026840;28;20082;-87
2022/10/04 03:31:41;;;;;;;4.90;1.70;;;10.90;99.90;;;;;;5028513;28;21171;-87
2022/10/04 03:34:16;;;;;;;2.92;1.30;;;10.80;99.90;;;;;;5028560;28;20045;-87
2022/10/04 03:36:43;;;;;;;2.45;1.20;;;11.10;99.90;;;;;;5035153;28;20025;-86
2022/10/04 03:39:11;;;;;;;3.13;1.50;;;11.00;99.90;;;;;;5028977;28;20037;-85
2022/10/04 03:41:41;;;;;;;3.72;1.80;;;11.00;99.90;;;;;;5034943;28;20037;-86
2022/10/04 03:44:14;;;;;;;2.58;1.30;;;10.90;99.90;;;;;;5029444;28;20048;-87
2022/10/04 03:46:42;;;;;;;5.20;1.77;;;10.90;99.90;;;;;;5029883;28;20025;-87
2022/10/04 03:49:11;;;;;;;2.75;1.40;;;10.90;99.90;;;;;;5028716;28;20367;-87
2022/10/04 03:51:42;;;;;;;4.15;1.30;;;10.90;99.90;;;;;;5029067;28;20040;-87
2022/10/04 03:54:14;;;;;;;2.08;1.17;;;11.10;99.90;;;;;;5026290;28;20049;-87
2022/10/04 03:56:40;;;;;;;3.00;1.48;;;11.30;99.90;;;;;;5027818;28;20048;-87
2022/10/04 03:59:06;;;;;;;3.10;1.38;;;11.30;99.90;;;;;;5025905;28;20475;-86
2022/10/04 04:01:59;;;;;;;4.55;1.10;;;11.20;99.90;;;;;;5024651;28;20029;-83
2022/10/04 04:04:43;;;;;;;2.40;1.10;;;10.80;99.90;;;;;;5025214;28;20779;-87
2022/10/04 04:07:36;;;;;;;2.45;1.20;;;10.50;99.90;;;;;;5023902;28;20037;-87
2022/10/04 04:10:14;;;;;;;5.95;1.40;;;10.40;99.90;;;;;;5023135;28;20021;-87
2022/10/04 04:12:46;;;;;;;2.40;1.10;;;10.40;99.90;;;;;;5023114;28;20081;-87
2022/10/04 04:15:14;;;;;;;4.78;1.17;;;10.50;99.90;;;;;;5023908;28;20128;-85
2022/10/04 04:17:45;;;;;;;3.35;1.55;;;10.60;99.90;;;;;;5028328;28;20091;-87
2022/10/04 04:20:20;;;;;;;3.55;1.33;;;10.60;99.90;;;;;;5035676;28;20033;-87
2022/10/04 04:22:50;;;;;;;;;;;10.60;99.90;;;;;;5027949;28;20069;-87
2022/10/04 04:25:16;;;;;;;3.17;1.10;;;10.70;99.90;;;;;;5026830;28;19936;-89
2022/10/04 04:27:45;;;;;;;3.30;1.50;;;10.80;99.90;;;;;;5026187;28;20107;-86
2022/10/04 04:30:16;;;;;;;3.13;1.23;;;10.80;99.90;;;;;;5030742;28;20031;-85
2022/10/04 04:32:48;;;;;;;2.95;1.50;;;10.70;99.90;;;;;;5033152;28;20022;-85
2022/10/04 04:35:29;;;;;;;2.83;1.30;;;10.60;99.90;;;;;;5028014;28;20056;-86
2022/10/04 04:38:02;;;;;;;4.90;1.10;;;10.60;99.90;;;;;;5035364;28;20032;-86
2022/10/04 04:40:28;;;;;;;1.63;0.82;;;10.50;99.90;;;;;;5033043;28;20128;-87
2022/10/04 04:42:58;;;;;;;1.85;0.85;;;10.80;99.90;;;;;;5032598;28;20544;-86
2022/10/04 04:45:30;;;;;;;2.50;0.88;;;10.80;99.90;;;;;;5028930;28;20042;-87
2022/10/04 04:47:58;;;;;;;3.20;1.02;;;10.80;99.90;;;;;;5037282;28;20020;-85
2022/10/04 04:50:30;;;;;;;4.22;1.73;;;10.70;99.90;;;;;;5033311;28;20022;-87
2022/10/04 04:53:11;;;;;;;2.13;0.88;;;10.70;99.90;;;;;;5031613;28;20037;-87
2022/10/04 04:55:43;;;;;;;6.57;1.20;;;10.80;99.90;;;;;;5034012;28;20832;-87
2022/10/04 04:58:20;;;;;;;3.05;1.00;;;10.60;99.90;;;;;;5029474;28;20063;-86
2022/10/04 05:00:53;;;;;;;2.60;1.10;;;10.60;99.90;;;;;;5031116;28;20045;-87
2022/10/04 05:03:19;;;;;;;1.83;0.75;;;10.70;99.90;;;;;;5038081;28;20052;-86
2022/10/04 05:05:46;;;;;;;1.92;0.82;;;10.60;99.90;;;;;;5031258;28;20037;-90
2022/10/04 05:08:23;;;;;;;2.00;0.85;;;10.50;99.90;;;;;;5030954;28;20029;-88
2022/10/04 05:11:07;;;;;;;2.38;1.15;;;10.40;99.90;;;;;;5027498;28;20472;-89
2022/10/04 05:13:52;;;;;;;3.88;0.80;;;10.50;99.90;;;;;;5029122;28;20049;-88
2022/10/04 05:16:37;;;;;;;1.85;0.90;;;10.60;99.90;;;;;;5030145;28;20026;-89
2022/10/04 05:19:05;;;;;;;;;;;10.40;99.90;;;;;;5031417;28;20049;-88
2022/10/04 05:21:33;;;;;;;2.58;0.88;;;10.50;99.90;;;;;;5037489;28;19909;-82
2022/10/04 05:24:10;;;;;;;4.78;1.23;;;10.50;99.90;;;;;;5041543;28;20056;-80
2022/10/04 05:26:36;;;;;;;1.30;0.65;;;10.40;99.90;;;;;;5031536;28;20966;-77
2022/10/04 05:29:11;;;;;;;2.67;1.35;;;10.40;99.90;;;;;;5026715;28;20030;-83
2022/10/04 05:31:59;;;;;;;3.10;0.85;;;10.50;99.90;;;;;;5022282;28;20128;-80
2022/10/04 05:34:29;;;;;;;3.38;1.02;;;10.30;99.90;;;;;;5025931;28;20045;-78
2022/10/04 05:37:05;;;;;;;2.30;0.90;;;10.30;99.90;;;;;;5024496;28;20571;-77
2022/10/04 05:39:52;;;;;;;2.97;0.98;;;10.60;99.90;;;;;;5024525;28;20030;-78
2022/10/04 05:42:33;;;;;;;1.98;0.98;;;10.60;99.90;;;;;;5024318;28;20720;-78
2022/10/04 05:45:00;;;;;;;2.30;1.05;;;10.60;99.90;;;;;;5024529;28;20596;-78
2022/10/04 05:47:29;;;;;;;2.75;1.23;;;10.70;99.90;;;;;;5024993;28;20043;-78
2022/10/04 05:49:57;;;;;;;3.05;1.10;;;10.80;99.90;;;;;;5025359;28;20037;-78
2022/10/04 05:52:37;;;;;;;2.83;0.82;;;10.90;99.90;;;;;;5028242;28;20478;-77
2022/10/04 05:55:12;;;;;;;1.65;0.90;;;11.00;99.90;;;;;;5024021;28;20045;-77
2022/10/04 05:57:45;;;;;;;3.35;1.00;;;10.80;99.90;;;;;;5021208;28;20538;-77
2022/10/04 06:00:19;;;;;;;1.65;0.93;;;10.70;99.90;;;;;;5024123;28;20044;-78
2022/10/04 06:02:57;;;;;;;1.70;0.75;;;10.70;99.90;;;;;;5026081;28;20025;-77
2022/10/04 06:05:43;;;;;;;1.98;0.90;;;10.70;99.90;;;;;;5024210;28;20042;-78
2022/10/04 06:08:32;;;;;;;2.00;0.82;;;10.80;99.90;;;;;;5023205;28;20033;-77
2022/10/04 06:11:10;;;;;;;3.03;1.30;;;10.90;99.90;;;;;;5024505;28;20521;-77
2022/10/04 06:13:51;;;;;;;4.00;1.25;;;11.00;99.90;;;;;;5023073;28;20061;-78
2022/10/04 06:16:26;;;;;;;3.67;1.35;;;10.90;99.90;;;;;;5022982;28;20399;-77
2022/10/04 06:18:51;;;;;;;2.67;1.00;;;10.80;99.90;;;;;;5021325;28;20530;-77
2022/10/04 06:22:10;;;;;;;2.55;1.42;;;10.90;99.90;;;;;;5024529;28;20056;-79
2022/10/04 06:24:40;;;;;;;2.08;1.17;;;10.70;99.90;;;;;;5023348;28;20036;-78
2022/10/04 06:27:35;;;;;;;3.03;0.95;;;10.70;99.90;;;;;;5028087;28;20044;-79
2022/10/04 06:30:12;;;;;;;3.38;1.48;;;10.60;99.90;;;;;;5032803;28;20085;-72
2022/10/04 06:33:16;;;;;;;2.58;0.98;;;10.70;99.90;;;;;;5022339;28;20082;-78
2022/10/04 06:35:50;;;;;;;1.23;0.77;;;10.70;99.90;;;;;;5022951;28;20704;-78
2022/10/04 06:38:52;;;;;;;1.58;0.73;;;10.70;99.90;;;;;;5022027;28;20667;-78
2022/10/04 06:41:55;;;;;;;3.75;0.90;;;10.90;99.90;;;;;;5024356;28;20028;-78
2022/10/04 06:44:42;;;;;;;1.77;1.00;;;10.90;99.90;;;;;;5025430;28;20149;-78
2022/10/04 06:47:32;;;;;;;3.10;0.90;;;10.80;99.90;;;;;;5024320;28;20374;-78
2022/10/04 06:50:01;;;;;;;5.18;1.33;;;10.80;99.90;;;;;;5030596;28;20033;-78
2022/10/04 06:53:21;;;;;;;3.83;1.10;;;10.60;99.90;;;;;;5023731;28;20096;-79
2022/10/04 06:55:52;;;;;;;2.20;1.00;;;10.70;99.90;;;;;;5021606;28;20042;-78
2022/10/04 06:58:29;;;;;;;4.53;1.00;;;10.70;99.90;;;;;;5023617;28;20539;-78
2022/10/04 07:01:16;;;;;;;1.95;0.82;;;10.80;99.90;;;;;;5024160;28;20064;-78
2022/10/04 07:04:03;;;;;;;4.40;0.90;;;10.80;99.90;;;;;;5024305;28;20555;-79
2022/10/04 07:07:34;;;;;;;1.10;0.55;;;11.00;99.90;;;;;;5024240;28;20033;-78
2022/10/04 07:10:15;;;;;;;2.20;1.27;;;11.30;99.90;;;;;;5025481;28;20031;-74
2022/10/04 07:12:49;;;;;;;2.10;0.80;;;11.40;99.90;;;;;;5023632;28;20605;-73
2022/10/04 07:15:23;;;;;;;4.97;1.92;;;11.50;99.90;;;;;;5024379;28;20775;-76
2022/10/04 07:17:51;;;;;;;6.15;1.35;;;11.80;99.90;;;;;;5024443;28;20033;-75
2022/10/04 07:20:26;;;;;;;3.20;0.90;;;11.70;99.90;;;;;;5023366;28;20044;-75
2022/10/04 07:23:00;;;;;;;1.85;0.98;;;11.70;99.90;;;;;;5023480;28;20059;-75
2022/10/04 07:25:32;;;;;;;2.53;0.88;;;11.70;99.90;;;;;;5020904;28;20040;-72
2022/10/04 07:31:26;;;;;;;2.50;1.42;;;11.80;99.80;;;;;;5023146;28;20056;-73
2022/10/04 07:34:26;;;;;;;1.73;1.00;;;11.90;99.90;;;;;;5033949;28;20044;-73
2022/10/04 07:36:54;;;;;;;1.48;0.68;;;12.00;99.90;;;;;;5021709;28;20037;-72
2022/10/04 07:39:26;;;;;;;1.80;0.60;;;12.10;99.90;;;;;;5020210;28;20026;-71
2022/10/04 07:42:18;;;;;;;3.00;0.90;;;12.10;99.90;;;;;;5020544;28;20037;-71
2022/10/04 07:44:55;;;;;;;3.70;1.02;;;12.10;99.90;;;;;;5020333;28;20032;-72
2022/10/04 07:47:26;;;;;;;0.93;0.60;;;12.20;99.90;;;;;;5020413;28;20041;-72
2022/10/04 07:49:57;;;;;;;5.78;2.17;;;12.20;99.40;;;;;;5019588;28;20017;-74
2022/10/04 07:52:49;;;;;;;3.05;1.13;;;12.30;99.50;;;;;;5021299;28;20403;-73
2022/10/04 07:55:31;;;;;;;3.20;0.82;;;12.40;99.40;;;;;;5020480;28;20068;-72
2022/10/04 07:58:11;;;;;;;3.65;1.25;;;12.50;98.70;;;;;;5022006;28;20026;-73
2022/10/04 08:00:55;;;;;;;2.70;1.08;;;12.70;99.00;;;;;;5020926;28;20022;-72
2022/10/04 08:03:38;;;;;;;2.43;0.87;;;12.90;99.20;;;;;;5023684;28;20061;-73
2022/10/04 08:06:29;;;;;;;2.40;0.65;;;12.90;98.70;;;;;;5026229;28;20030;-74
2022/10/04 08:08:55;;;;;;;6.05;1.00;;;13.00;97.50;;;;;;5021777;28;20415;-72
2022/10/04 08:11:42;;;;;;;2.17;0.68;;;13.10;98.30;;;;;;5024472;28;20033;-74
2022/10/04 08:14:32;;;;;;;2.08;0.80;;;13.30;97.80;;;;;;5024784;28;20381;-74
2022/10/04 08:17:04;;;;;;;1.83;0.70;;;13.20;96.80;;;;;;5024659;28;20561;-73
2022/10/04 08:19:50;;;;;;;2.72;0.90;;;13.20;97.30;;;;;;5025557;28;20037;-74
2022/10/04 08:22:54;;;;;;;3.20;1.00;;;13.40;97.60;;;;;;5023552;28;20040;-72
2022/10/04 08:25:35;;;;;;;2.08;0.70;;;13.40;97.50;;;;;;5024706;28;20795;-73
2022/10/04 08:31:43;;;;;;;4.10;1.67;;;13.40;97.60;;;;;;5023768;28;20084;-75
2022/10/04 08:34:27;;;;;;;4.35;1.00;;;13.50;98.60;;;;;;5031592;28;20092;-74
2022/10/04 08:37:23;;;;;;;2.92;0.98;;;13.50;98.40;;;;;;5023887;28;20128;-75
2022/10/04 08:40:10;;;;;;;;;;;13.60;97.90;;;;;;5029293;28;20057;-74
2022/10/04 08:42:48;;;;;;;5.22;1.60;;;13.70;98.90;;;;;;5024438;28;19908;-74
2022/10/04 08:45:52;;;;;;;3.15;1.10;;;13.70;98.90;;;;;;5023743;28;20026;-74
2022/10/04 08:48:23;;;;;;;2.30;1.13;;;13.70;98.30;;;;;;5023392;28;20029;-75
2022/10/04 08:51:04;;;;;;;2.22;1.08;;;13.80;98.10;;;;;;5024051;28;20025;-74
2022/10/04 08:54:12;;;;;;;3.80;1.58;;;13.80;98.40;;;;;;5024308;28;20128;-74
2022/10/04 08:56:56;;;;;;;6.68;1.35;;;14.00;98.40;;;;;;5029607;28;20596;-74
2022/10/04 08:59:47;;;;;;;4.28;1.52;;;14.00;98.40;;;;;;5023456;28;20017;-74
2022/10/04 09:02:31;;;;;;;2.60;1.00;;;14.00;98.30;;;;;;5024984;28;20034;-73
2022/10/04 09:05:13;;;;;;;5.15;1.08;;;14.10;98.00;;;;;;5026035;28;20061;-74
2022/10/04 09:07:48;;;;;;;2.25;0.82;;;14.20;97.30;;;;;;5025614;28;20056;-73
2022/10/04 09:10:39;;;;;;;1.67;0.70;;;14.20;97.60;;;;;;5025393;28;20107;-74
2022/10/04 09:13:24;;;;;;;1.95;0.73;;;14.40;97.60;;;;;;5024703;28;20077;-73
2022/10/04 09:15:57;;;;;;;2.30;0.90;;;14.40;97.00;;;;;;5025284;28;20064;-74
2022/10/04 09:18:29;;;;;;;2.00;0.80;;;14.60;97.60;;;;;;5025995;28;20042;-74
2022/10/04 09:21:07;;;;;;;2.70;1.25;;;14.70;97.20;;;;;;5028608;28;20026;-73
2022/10/04 09:23:42;;;;;;;3.17;1.10;;;14.50;96.50;;;;;;5026444;28;20025;-74
2022/10/04 09:26:27;;;;;;;4.95;1.08;;;14.60;97.30;;;;;;5026217;28;20033;-74
2022/10/04 09:29:11;;;;;;;2.15;0.80;;;14.70;97.30;;;;;;5027197;28;20594;-74
2022/10/04 09:31:49;;;;;;;3.97;1.17;;;14.80;97.20;;;;;;5026726;28;20691;-74
2022/10/04 09:34:42;;;;;;;2.17;1.15;;;14.80;96.90;;;;;;5024697;28;20033;-74
2022/10/04 09:37:25;;;;;;;2.50;0.75;;;14.90;96.50;;;;;;5030413;28;20026;-74
2022/10/04 09:40:36;;;;;;;1.48;0.68;;;14.90;96.30;;;;;;5034057;28;20029;-74
2022/10/04 09:43:20;;;;;;;3.30;0.82;;;15.00;96.10;;;;;;5025305;28;20038;-77
2022/10/04 09:46:15;;;;;;;1.08;0.70;;;15.00;96.20;;;;;;5031355;28;20036;-76
2022/10/04 09:48:43;;;;;;;5.13;1.33;;;15.00;97.10;;;;;;5036340;28;20328;-78
2022/10/04 09:51:39;;;;;;;4.43;1.30;;;15.00;96.40;;;;;;5029421;28;20034;-77
2022/10/04 09:54:43;;;;;;;1.10;0.70;;;15.10;96.20;;;;;;5030560;28;20032;-77
2022/10/04 09:57:21;;;;;;;2.15;0.85;;;15.20;96.90;;;;;;5033926;28;20048;-77
2022/10/04 09:59:55;;;;;;;2.35;1.00;;;15.10;95.70;;;;;;5026181;28;20033;-77
2022/10/04 10:02:39;;;;;;;1.65;0.80;;;15.20;95.80;;;;;;5025965;28;20044;-77
2022/10/04 10:05:15;;;;;;;4.28;1.10;;;15.10;95.90;;;;;;5025078;28;20026;-77
2022/10/04 10:07:52;;;;;;;3.60;0.80;;;15.10;95.30;;;;;;5024590;28;20029;-78
2022/10/04 10:13:59;;;;;;;2.83;1.10;;;15.20;96.20;;;;;;5024917;28;20057;-77
2022/10/04 10:16:34;;;;;;;4.17;1.20;;;15.40;96.30;;;;;;5035030;28;20528;-77
2022/10/04 10:19:06;;;;;;;4.13;0.98;;;15.50;97.40;;;;;;5025225;28;20287;-78
2022/10/04 10:21:34;;;;;;;3.78;0.88;;;15.60;96.80;;;;;;5032366;28;20111;-78
2022/10/04 10:24:25;;;;;;;2.47;1.13;;;15.50;96.50;;;;;;5026109;28;20036;-77
2022/10/04 10:27:10;;;;;;;2.92;1.20;;;15.50;96.30;;;;;;5023548;28;20033;-78
2022/10/04 10:29:51;;;;;;;2.25;0.95;;;15.60;96.40;;;;;;5026683;28;20394;-77
2022/10/04 10:32:35;;;;;;;3.65;1.20;;;15.80;97.30;;;;;;5031954;28;20072;-77
2022/10/04 10:35:13;;;;;;;15.82;1.40;;;15.70;96.40;;;;;;5031738;28;20176;-78
2022/10/04 10:37:47;;;;;;;5.57;1.20;;;15.90;96.70;;;;;;5025374;28;20458;-77
2022/10/04 10:40:30;;;;;;;2.97;1.20;;;15.90;96.10;;;;;;5026046;28;20033;-77
2022/10/04 10:43:20;;;;;;;1.40;0.75;;;15.80;95.60;;;;;;5025620;28;20021;-77
2022/10/04 10:46:03;;;;;;;2.13;1.10;;;15.90;95.40;;;;;;5026024;28;20022;-78
2022/10/04 10:48:31;;;;;;;4.97;1.23;;;15.80;94.90;;;;;;5025927;28;20075;-77
2022/10/04 10:51:09;;;;;;;3.83;0.90;;;15.80;95.20;;;;;;5024188;28;20096;-78
2022/10/04 10:54:06;;;;;;;5.55;1.40;;;15.80;95.20;;;;;;5034385;28;20025;-77
2022/10/04 10:56:56;;;;;;;5.35;1.35;;;15.80;95.60;;;;;;5025354;28;20037;-77
2022/10/04 10:59:41;;;;;;;2.65;1.55;;;15.80;95.60;;;;;;5024423;28;20044;-78
2022/10/04 11:02:25;;;;;;;3.78;0.80;;;16.00;95.70;;;;;;5024415;28;20026;-77
2022/10/04 11:05:09;;;;;;;3.42;0.98;;;16.00;95.40;;;;;;5023657;28;20029;-77
2022/10/04 11:07:50;;;;;;;2.67;1.02;;;16.00;95.20;;;;;;5026016;28;20109;-77
2022/10/04 11:10:53;;;;;;;4.28;1.00;;;16.00;95.40;;;;;;5031960;28;20113;-78
2022/10/04 11:13:41;;;;;;;5.13;1.17;;;15.80;95.00;;;;;;5023843;28;20099;-77
2022/10/04 11:16:46;;;;;;;3.15;0.90;;;16.10;96.10;;;;;;5023524;28;20124;-77
2022/10/04 11:19:27;;;;;;;2.50;1.02;;;16.20;96.20;;;;;;5025185;28;20056;-79
2022/10/04 11:22:18;;;;;;;4.60;1.00;;;16.20;96.20;;;;;;5025543;28;20025;-77
2022/10/04 11:25:03;;;;;;;4.40;1.17;;;16.30;96.10;;;;;;5023013;28;20033;-78
2022/10/04 11:27:47;;;;;;;2.97;0.98;;;16.20;94.80;;;;;;5024709;28;20029;-77
2022/10/04 11:30:25;;;;;;;3.28;1.35;;;16.00;94.80;;;;;;5024861;28;20053;-77
2022/10/04 11:33:08;;;;;;;4.07;1.20;;;16.10;94.90;;;;;;5023827;28;20033;-77
2022/10/04 11:35:37;;;;;;;2.38;1.20;;;16.30;95.60;;;;;;5023425;28;23712;-78
2022/10/04 11:38:27;;;;;;;2.58;1.17;;;16.40;95.70;;;;;;5023383;28;20048;-77
2022/10/04 11:41:23;;;;;;;4.15;1.10;;;16.50;95.60;;;;;;5024439;28;20028;-77
2022/10/04 11:44:17;;;;;;;4.10;1.48;;;16.50;95.90;;;;;;5024658;28;20029;-78
2022/10/04 11:46:58;;;;;;;2.63;1.20;;;16.50;96.60;;;;;;5024466;28;20471;-77
2022/10/04 11:49:56;;;;;;;5.55;1.20;;;16.60;96.60;;;;;;5024362;28;20033;-78
2022/10/04 11:52:35;;;;;;;3.88;0.98;;;16.50;96.50;;;;;;5031151;28;20356;-77
2022/10/04 11:55:29;;;;;;;7.13;2.17;;;16.50;96.00;;;;;;5026788;28;20076;-77
2022/10/04 11:58:19;;;;;;;1.92;1.15;;;16.30;95.20;;;;;;5026608;28;20048;-78
2022/10/04 12:01:19;;;;;;;2.63;1.20;;;16.40;96.40;;;;;;5024164;28;20021;-78
2022/10/04 12:03:59;;;;;;;3.08;1.10;;;16.50;96.30;;;;;;5013108;28;20123;-77
2022/10/04 12:06:56;;;;;;;2.53;1.10;;;16.50;95.30;;;;;;5025360;28;20051;-77
2022/10/04 12:09:41;;;;;;;5.30;1.60;;;16.50;95.30;;;;;;5023762;28;20500;-78
2022/10/04 12:12:37;;;;;;;3.20;0.90;;;16.50;95.30;;;;;;5024783;28;20038;-78
2022/10/04 12:15:21;;;;;;;4.53;1.60;;;16.60;95.60;;;;;;5023738;28;20079;-77
2022/10/04 12:18:14;;;;;;;3.65;1.20;;;16.60;95.40;;;;;;5024158;28;20460;-78
2022/10/04 12:21:01;;;;;;;2.28;0.98;;;16.70;95.50;;;;;;5028276;28;20084;-77
2022/10/04 12:23:41;;;;;;;3.53;1.10;;;16.70;95.30;;;;;;5031410;28;20042;-77
2022/10/04 12:26:22;;;;;;;3.30;1.13;;;16.90;95.60;;;;;;5046730;28;20017;-78
2022/10/04 12:28:48;;;;;;;3.42;1.10;;;17.00;95.00;;;;;;5040416;28;20033;-77
2022/10/04 12:31:24;;;;;;;4.85;1.48;;;17.00;95.90;;;;;;5023448;28;20030;-78
2022/10/04 12:34:14;;;;;;;2.72;1.02;;;17.00;95.50;;;;;;5023404;28;20033;-78
2022/10/04 12:37:03;;;;;;;3.67;1.67;;;17.00;95.50;;;;;;5023343;28;20044;-78
2022/10/04 12:39:53;;;;;;;6.75;2.45;;;17.10;96.60;;;;;;5024912;28;20095;-77
2022/10/04 12:42:40;;;;;;;5.05;1.17;;;17.00;96.60;;;;;;5027380;28;20522;-78
2022/10/04 12:45:37;;;;;;;3.50;1.58;;;16.90;96.30;;;;;;5024807;28;20048;-78
2022/10/04 12:48:24;;;;;;;4.38;1.33;;;16.80;95.90;;;;;;5023847;28;20026;-77
2022/10/04 12:51:08;;;;;;;5.38;1.20;;;16.80;95.80;;;;;;5028177;28;20033;-77
2022/10/04 12:54:05;;;;;;;5.05;2.10;;;16.90;95.90;;;;;;5026796;28;20105;-78
2022/10/04 12:56:49;;;;;;;3.60;1.20;;;17.10;96.70;;;;;;5027352;28;20116;-77
2022/10/04 12:59:20;;;;;;;5.22;1.15;;;17.20;95.50;;;;;;5026903;28;20029;-78
2022/10/04 13:02:13;;;;;;;4.18;1.58;;;17.20;95.60;;;;;;5035074;28;20516;-78
2022/10/04 13:04:58;;;;;;;3.60;1.40;;;17.30;94.80;;;;;;5028779;28;20044;-78
2022/10/04 13:07:57;;;;;;;3.70;1.23;;;17.20;94.50;;;;;;5027074;28;20076;-78
2022/10/04 13:10:33;;;;;;;2.47;1.15;;;17.40;95.70;;;;;;5028169;28;20375;-77
2022/10/04 13:13:09;;;;;;;2.90;1.00;;;17.60;95.90;;;;;;5025967;28;20349;-78
2022/10/04 13:15:55;;;;;;;7.85;1.52;;;17.80;94.90;;;;;;5027304;28;20105;-78
2022/10/04 13:18:43;;;;;;;3.65;1.13;;;17.80;95.00;;;;;;5026121;28;20025;-78
2022/10/04 13:21:15;;;;;;;3.10;1.25;;;18.00;95.00;;;;;;5027291;28;20087;-78
2022/10/04 13:24:00;;;;;;;3.60;1.25;;;18.10;94.90;;;;;;5026372;28;20434;-78
2022/10/04 13:26:45;;;;;;;;;;;18.30;95.20;;;;;;5029013;28;20505;-78
2022/10/04 13:29:28;;;;;;;3.25;1.40;;;18.30;95.40;;;;;;5028378;28;19913;-78
2022/10/04 13:32:00;;;;;;;3.90;1.00;;;18.10;95.10;;;;;;5036414;28;20119;-78
2022/10/04 13:34:38;;;;;;;5.47;1.60;;;17.80;94.40;;;;;;5031732;28;20115;-78
2022/10/04 13:37:21;;;;;;;4.40;1.40;;;17.50;94.70;;;;;;5026869;28;20022;-78
2022/10/04 13:39:52;;;;;;;3.47;1.35;;;17.60;94.70;;;;;;5026986;28;20475;-78
2022/10/04 13:42:23;;;;;;;3.58;1.23;;;17.70;95.60;;;;;;5031716;28;20508;-78
2022/10/04 13:45:17;;;;;;;4.53;1.23;;;17.80;94.80;;;;;;5025625;28;20072;-78
2022/10/04 13:48:12;;;;;;;2.30;1.17;;;17.90;94.40;;;;;;5025784;28;20029;-78
2022/10/04 13:51:14;;;;;;;2.65;1.08;;;17.80;94.70;;;;;;5025473;28;20025;-78
2022/10/04 13:57:02;;;;;;;4.05;1.33;;;18.10;94.50;;;;;;5025925;28;20080;-78
2022/10/04 13:59:40;;;;;;;4.47;1.63;;;18.10;94.40;;;;;;5026149;28;20033;-78
2022/10/04 14:02:58;;;;;;;6.47;1.17;;;18.00;94.50;;;;;;5026212;28;20028;-78
2022/10/04 14:05:42;;;;;;;4.95;1.17;;;18.30;94.50;;;;;;5031494;28;20109;-78
2022/10/04 14:08:11;;;;;;;4.53;1.08;;;18.30;94.40;;;;;;5026013;28;20487;-78